Time;durP1;ratioP1;P1;durP2;ratioP2;P2;SDS_P1;SDS_P2;PMS_P1;PMS_P2;Temp;Humidity;BMP_temperature;BMP_pressure;BME280_temperature;BME280_humidity;BME280_pressure;Samples;Min_cycle;Max_cycle;Signal;HPM_P1;HPM_P2
2022/05/03 00:04:03;;;;;;;5.95;3.97;;;15.10;99.90;;;;;;4860375;29;20432;-90
2022/05/03 00:06:45;;;;;;;5.53;3.58;;;15.20;99.90;;;;;;4823369;29;20609;-89
2022/05/03 00:10:07;;;;;;;5.05;3.75;;;15.30;99.90;;;;;;4825697;29;20038;-90
2022/05/03 00:16:28;;;;;;;5.03;3.67;;;15.50;99.90;;;;;;4801498;29;20582;-89
2022/05/03 00:18:54;;;;;;;4.70;3.20;;;15.60;99.90;;;;;;4792034;29;20035;-90
2022/05/03 00:24:55;;;;;;;4.47;3.25;;;15.70;99.90;;;;;;4802444;29;20273;-90
2022/05/03 00:27:29;;;;;;;3.78;3.45;;;15.70;99.90;;;;;;4798491;29;20439;-91
2022/05/03 00:30:38;;;;;;;7.05;3.25;;;15.80;99.90;;;;;;4823257;29;20044;-90
2022/05/03 00:33:04;;;;;;;5.82;3.08;;;15.70;99.90;;;;;;4906149;29;20036;-90
2022/05/03 00:38:47;;;;;;;4.05;3.60;;;15.70;99.90;;;;;;4951782;28;20043;-89
2022/05/03 00:41:50;;;;;;;5.57;3.35;;;15.70;99.90;;;;;;4951140;28;20038;-89
2022/05/03 00:48:14;;;;;;;5.38;3.35;;;15.70;99.90;;;;;;4917393;29;20032;-91
2022/05/03 00:51:20;;;;;;;3.60;3.10;;;15.70;99.90;;;;;;4917472;29;20411;-89
2022/05/03 00:54:35;;;;;;;4.93;3.60;;;15.60;99.90;;;;;;4963245;28;20498;-89
2022/05/03 00:57:59;;;;;;;6.30;3.55;;;15.60;99.90;;;;;;4970960;28;20043;-89
2022/05/03 01:08:30;;;;;;;4.03;3.35;;;15.60;99.90;;;;;;4839379;29;20147;-88
2022/05/03 01:11:44;;;;;;;4.15;3.47;;;15.60;99.90;;;;;;4825819;29;20049;-89
2022/05/03 01:18:07;;;;;;;3.53;3.13;;;15.60;99.90;;;;;;4982310;28;20098;-87
2022/05/03 01:21:23;;;;;;;5.47;3.25;;;15.50;99.90;;;;;;4965188;28;20073;-89
2022/05/03 01:24:31;;;;;;;;;;;;;;;;;;;;;
2022/05/03 01:27:29;;;;;;;6.65;3.35;;;15.30;99.90;;;;;;4957879;28;20037;-89
2022/05/03 01:30:18;;;;;;;7.00;3.15;;;15.20;99.90;;;;;;4968733;28;20039;-89
2022/05/03 01:32:50;;;;;;;5.75;3.58;;;15.10;99.90;;;;;;4958425;28;20406;-91
2022/05/03 01:35:21;;;;;;;7.47;3.55;;;15.00;99.90;;;;;;4971979;28;20034;-89
2022/05/03 01:38:12;;;;;;;3.92;3.05;;;15.00;99.90;;;;;;4972745;28;20030;-89
2022/05/03 01:41:05;;;;;;;5.32;3.50;;;14.90;99.90;;;;;;4973194;28;20031;-89
2022/05/03 01:55:28;;;;;;;;;;;;;;;;;;;;;
2022/05/03 02:01:24;;;;;;;4.40;3.38;;;14.90;99.90;;;;;;4838147;29;20389;-88
2022/05/03 02:04:06;;;;;;;3.55;2.97;;;14.80;99.90;;;;;;4839915;29;20064;-89
2022/05/03 02:10:39;;;;;;;3.30;3.00;;;14.80;99.90;;;;;;4892302;29;20096;-88
2022/05/03 02:17:25;;;;;;;4.07;3.35;;;14.80;99.90;;;;;;4812410;29;20052;-88
2022/05/03 02:20:30;;;;;;;3.97;3.55;;;14.90;99.90;;;;;;4859074;29;20513;-88
2022/05/03 02:23:10;;;;;;;4.32;3.70;;;14.80;99.90;;;;;;4857656;29;20089;-89
2022/05/03 02:26:13;;;;;;;6.78;3.83;;;14.80;99.90;;;;;;4858750;29;20053;-89
2022/05/03 02:28:46;;;;;;;;;;;14.80;99.90;;;;;;4951291;28;20266;-89
2022/05/03 02:31:18;;;;;;;5.68;3.80;;;14.80;99.90;;;;;;4972083;28;19917;-87
2022/05/03 02:33:58;;;;;;;7.28;3.97;;;14.80;99.90;;;;;;4973579;28;20057;-89
2022/05/03 02:36:25;;;;;;;6.35;3.95;;;14.80;99.90;;;;;;4975000;28;20027;-91
2022/05/03 02:39:02;;;;;;;3.90;3.50;;;14.80;99.90;;;;;;4973906;28;20494;-89
2022/05/03 02:41:32;;;;;;;4.68;3.72;;;14.70;99.90;;;;;;4971532;28;20023;-90
2022/05/03 02:44:01;;;;;;;3.92;3.38;;;14.70;99.90;;;;;;4973094;28;20034;-90
2022/05/03 02:47:08;;;;;;;3.53;3.13;;;14.60;99.90;;;;;;4956756;28;20038;-89
2022/05/03 02:49:37;;;;;;;4.43;3.40;;;14.60;99.90;;;;;;4880039;29;20039;-88
2022/05/03 02:52:11;;;;;;;3.53;3.22;;;14.60;99.90;;;;;;4895931;29;20096;-89
2022/05/03 02:55:07;;;;;;;4.85;3.00;;;14.70;99.90;;;;;;4928304;28;20050;-88
2022/05/03 02:58:00;;;;;;;5.35;3.38;;;14.80;99.90;;;;;;4956558;28;20033;-89
2022/05/03 03:03:40;;;;;;;6.32;3.10;;;14.80;99.90;;;;;;4973891;28;20042;-89
2022/05/03 03:06:19;;;;;;;5.13;2.90;;;14.70;99.90;;;;;;4956233;28;20406;-88
2022/05/03 03:08:45;;;;;;;8.93;3.10;;;14.70;99.90;;;;;;4974322;28;20033;-89
2022/05/03 03:11:55;;;;;;;4.32;3.05;;;14.70;99.90;;;;;;4974269;28;20397;-89
2022/05/03 03:14:39;;;;;;;7.20;3.15;;;14.60;99.90;;;;;;4974188;28;20030;-88
2022/05/03 03:17:05;;;;;;;5.82;3.30;;;14.60;99.90;;;;;;4971978;28;20030;-88
2022/05/03 03:19:37;;;;;;;3.60;3.30;;;14.50;99.90;;;;;;4956304;28;20367;-89
2022/05/03 03:22:06;;;;;;;6.87;2.97;;;14.50;99.90;;;;;;4973128;28;20035;-89
2022/05/03 03:24:34;;;;;;;6.88;3.50;;;14.40;99.90;;;;;;4973664;28;20031;-89
2022/05/03 03:27:02;;;;;;;3.53;3.22;;;14.40;99.90;;;;;;4973641;28;20049;-88
2022/05/03 03:29:30;;;;;;;6.10;4.03;;;14.30;99.90;;;;;;4972635;28;20076;-89
2022/05/03 03:32:01;;;;;;;6.82;3.67;;;14.30;99.90;;;;;;4972301;28;20023;-89
2022/05/03 03:34:28;;;;;;;5.15;3.67;;;14.30;99.90;;;;;;4956511;28;20086;-89
2022/05/03 03:37:01;;;;;;;6.47;3.72;;;14.20;99.90;;;;;;4973038;28;20147;-89
2022/05/03 03:39:33;;;;;;;4.60;3.28;;;14.20;99.90;;;;;;4956154;28;20039;-89
2022/05/03 03:42:03;;;;;;;;;;;14.10;99.90;;;;;;4972917;28;20333;-89
2022/05/03 03:44:30;;;;;;;5.72;3.63;;;14.10;99.90;;;;;;4972745;28;19934;-90
2022/05/03 03:47:00;;;;;;;12.05;4.13;;;14.00;99.90;;;;;;4970029;28;20609;-90
2022/05/03 03:49:30;;;;;;;4.32;3.55;;;13.90;99.90;;;;;;4972337;28;20035;-89
2022/05/03 03:51:59;;;;;;;5.72;4.25;;;13.80;99.90;;;;;;4954653;28;20037;-89
2022/05/03 03:54:25;;;;;;;4.13;3.72;;;13.70;99.90;;;;;;4971760;28;20038;-89
2022/05/03 03:56:52;;;;;;;5.80;3.45;;;13.70;99.90;;;;;;4973145;28;20030;-88
2022/05/03 03:59:19;;;;;;;3.80;3.45;;;13.70;99.90;;;;;;4955806;28;20085;-88
2022/05/03 04:01:45;;;;;;;4.53;3.55;;;13.70;99.90;;;;;;4972885;28;20022;-88
2022/05/03 04:04:12;;;;;;;4.97;3.63;;;13.60;99.90;;;;;;4972936;28;20505;-88
2022/05/03 04:06:38;;;;;;;5.43;3.30;;;13.60;99.90;;;;;;4971032;28;20113;-88
2022/05/03 04:09:04;;;;;;;4.30;3.60;;;13.60;99.90;;;;;;4972484;28;20066;-89
2022/05/03 04:11:47;;;;;;;6.75;3.67;;;13.70;99.90;;;;;;4971311;28;20105;-88
2022/05/03 04:14:15;;;;;;;7.72;3.22;;;13.70;99.90;;;;;;4954380;28;20035;-88
2022/05/03 04:16:42;;;;;;;9.68;3.50;;;13.70;99.90;;;;;;4969293;28;20034;-90
2022/05/03 04:19:11;;;;;;;4.93;3.22;;;13.70;99.90;;;;;;4972738;28;20034;-89
2022/05/03 04:21:37;;;;;;;3.83;3.20;;;13.80;99.90;;;;;;4971379;28;20026;-89
2022/05/03 04:24:07;;;;;;;8.80;3.55;;;13.80;99.90;;;;;;4954982;28;20055;-89
2022/05/03 04:26:36;;;;;;;7.65;3.22;;;13.80;99.90;;;;;;4972570;28;20023;-88
2022/05/03 04:29:03;;;;;;;4.13;3.55;;;13.80;99.90;;;;;;4972709;28;20533;-89
2022/05/03 04:31:31;;;;;;;6.20;3.60;;;13.80;99.90;;;;;;4971099;28;20041;-88
2022/05/03 04:33:58;;;;;;;6.13;3.72;;;13.90;99.90;;;;;;4953090;28;20035;-87
2022/05/03 04:36:27;;;;;;;7.25;3.97;;;13.90;99.90;;;;;;4970789;28;20153;-88
2022/05/03 04:38:53;;;;;;;5.95;3.28;;;13.90;99.90;;;;;;4972436;28;20097;-89
2022/05/03 04:41:26;;;;;;;8.70;3.75;;;14.00;99.90;;;;;;4955190;28;20490;-89
2022/05/03 04:43:52;;;;;;;6.30;3.42;;;14.10;99.90;;;;;;4972046;28;20042;-89
2022/05/03 04:46:30;;;;;;;6.20;3.88;;;14.20;99.90;;;;;;4971373;28;20061;-90
2022/05/03 04:48:55;;;;;;;7.63;3.35;;;14.20;99.90;;;;;;4970889;28;20031;-94
2022/05/03 04:51:29;;;;;;;8.60;3.55;;;14.20;99.90;;;;;;4978408;28;20305;-94
2022/05/03 04:53:58;;;;;;;6.07;3.50;;;14.20;99.90;;;;;;4988074;28;20038;-92
2022/05/03 04:56:27;;;;;;;6.18;3.35;;;14.20;99.90;;;;;;4992104;28;20038;-92
2022/05/03 04:58:57;;;;;;;6.13;3.25;;;14.20;99.90;;;;;;4991146;28;20071;-93
2022/05/03 05:01:26;;;;;;;5.82;3.08;;;14.20;99.90;;;;;;4995178;28;20054;-94
2022/05/03 05:03:52;;;;;;;4.07;3.30;;;14.20;99.90;;;;;;4995954;28;20037;-95
2022/05/03 05:06:19;;;;;;;4.55;3.33;;;14.20;99.90;;;;;;4979013;28;20035;-93
2022/05/03 05:08:45;;;;;;;5.97;3.47;;;14.20;99.90;;;;;;4996369;28;20035;-93
2022/05/03 05:11:12;;;;;;;4.05;3.17;;;14.30;99.90;;;;;;4983688;28;20553;-95
2022/05/03 05:13:38;;;;;;;5.20;3.20;;;14.30;99.90;;;;;;4973280;28;20508;-95
2022/05/03 05:16:06;;;;;;;3.40;3.10;;;14.30;99.90;;;;;;4972510;28;20030;-94
2022/05/03 05:18:35;;;;;;;4.35;3.08;;;14.30;99.90;;;;;;4958060;28;20513;-93
2022/05/03 05:21:03;;;;;;;9.73;3.13;;;14.30;99.90;;;;;;4975259;28;20031;-94
2022/05/03 05:23:29;;;;;;;5.90;2.88;;;14.40;99.90;;;;;;4940512;28;20116;-90
2022/05/03 05:25:55;;;;;;;10.45;3.95;;;14.40;99.90;;;;;;4954551;28;20498;-89
2022/05/03 05:28:22;;;;;;;4.88;3.65;;;14.50;99.90;;;;;;4962834;28;20113;-87
2022/05/03 05:30:52;;;;;;;11.23;3.50;;;14.50;99.90;;;;;;4971591;28;20035;-89
2022/05/03 05:33:18;;;;;;;7.00;2.90;;;14.60;99.90;;;;;;4971664;28;20077;-89
2022/05/03 05:35:44;;;;;;;7.10;2.90;;;14.70;99.90;;;;;;4954091;28;20390;-87
2022/05/03 05:38:13;;;;;;;5.40;3.35;;;14.70;99.90;;;;;;4971788;28;20031;-88
2022/05/03 05:40:39;;;;;;;4.88;3.20;;;14.80;99.90;;;;;;4972307;28;20031;-88
2022/05/03 05:43:10;;;;;;;6.82;2.80;;;14.80;99.90;;;;;;4971425;28;20050;-89
2022/05/03 05:45:37;;;;;;;5.82;2.88;;;14.80;99.90;;;;;;4954816;28;20108;-91
2022/05/03 05:48:10;;;;;;;8.30;3.58;;;15.00;99.90;;;;;;4970890;28;20015;-89
2022/05/03 05:50:42;;;;;;;3.85;3.20;;;15.00;99.90;;;;;;4974987;28;20031;-94
2022/05/03 05:56:14;;;;;;;9.25;3.47;;;15.10;99.90;;;;;;4978567;28;20030;-93
2022/05/03 05:58:49;;;;;;;6.88;3.53;;;15.20;99.90;;;;;;4978438;28;20018;-94
2022/05/03 06:01:27;;;;;;;7.07;3.55;;;15.30;99.90;;;;;;4980841;28;20050;-95
2022/05/03 06:03:59;;;;;;;6.20;3.22;;;15.40;99.90;;;;;;4975600;28;20066;-93
2022/05/03 06:06:45;;;;;;;17.65;3.65;;;15.50;99.90;;;;;;4960294;28;20089;-93
2022/05/03 06:09:15;;;;;;;9.98;3.63;;;15.60;99.90;;;;;;4974870;28;20080;-95
2022/05/03 06:11:46;;;;;;;9.70;3.42;;;15.70;99.90;;;;;;4957311;28;20493;-94
2022/05/03 06:14:17;;;;;;;11.50;3.60;;;15.90;99.90;;;;;;4973015;28;20023;-94
2022/05/03 06:17:09;;;;;;;4.22;3.10;;;16.00;99.90;;;;;;4941201;28;20023;-94
2022/05/03 06:19:44;;;;;;;8.38;3.42;;;16.10;99.90;;;;;;4948546;28;20105;-93
2022/05/03 06:22:14;;;;;;;5.80;3.15;;;16.20;99.90;;;;;;4951588;28;20141;-89
2022/05/03 06:24:47;;;;;;;5.50;3.10;;;16.30;99.90;;;;;;4971660;28;20049;-96
2022/05/03 06:27:16;;;;;;;5.25;2.88;;;16.40;99.90;;;;;;4972604;28;20031;-87
2022/05/03 06:29:55;;;;;;;6.63;2.92;;;16.50;99.90;;;;;;4971351;28;20031;-90
2022/05/03 06:32:21;;;;;;;5.55;2.92;;;16.60;99.90;;;;;;4969449;28;20125;-89
2022/05/03 06:34:47;;;;;;;3.33;2.70;;;16.70;99.90;;;;;;4974904;28;20093;-86
2022/05/03 06:37:23;;;;;;;4.60;2.78;;;16.80;99.90;;;;;;4955822;28;20030;-88
2022/05/03 06:40:11;;;;;;;7.07;2.78;;;17.00;99.90;;;;;;4971813;28;20023;-88
2022/05/03 06:42:39;;;;;;;9.82;2.78;;;17.10;99.90;;;;;;4952678;28;20031;-90
2022/05/03 06:45:10;;;;;;;4.82;2.47;;;17.10;99.90;;;;;;4954245;28;20572;-87
2022/05/03 06:47:36;;;;;;;4.90;2.45;;;17.20;99.90;;;;;;4972794;28;20019;-87
2022/05/03 06:50:02;;;;;;;4.22;2.83;;;17.20;99.90;;;;;;4973060;28;20041;-88
2022/05/03 06:52:30;;;;;;;2.97;2.55;;;17.30;99.90;;;;;;4956012;28;20037;-89
2022/05/03 06:54:56;;;;;;;5.28;2.35;;;17.30;99.90;;;;;;4955941;28;20015;-90
2022/05/03 06:57:22;;;;;;;16.40;3.05;;;17.30;99.90;;;;;;4973388;28;20033;-90
2022/05/03 06:59:47;;;;;;;9.85;2.90;;;17.30;99.90;;;;;;4957051;28;20025;-90
2022/05/03 07:02:13;;;;;;;4.15;2.80;;;17.30;99.90;;;;;;4973178;28;20609;-90
2022/05/03 07:04:39;;;;;;;3.75;2.55;;;17.30;99.90;;;;;;4973723;28;20554;-90
2022/05/03 07:07:04;;;;;;;5.20;2.88;;;17.30;99.90;;;;;;4973473;28;20035;-89
2022/05/03 07:09:30;;;;;;;5.32;2.55;;;17.30;99.90;;;;;;4955450;28;20080;-90
2022/05/03 07:11:56;;;;;;;5.28;2.40;;;17.30;99.90;;;;;;4971775;28;20031;-90
2022/05/03 07:14:22;;;;;;;3.85;3.00;;;17.40;99.90;;;;;;4972769;28;20478;-89
2022/05/03 07:16:47;;;;;;;3.50;2.50;;;17.40;99.90;;;;;;4973052;28;20042;-89
2022/05/03 07:24:45;;;;;;;5.72;2.80;;;17.60;99.90;;;;;;4969594;28;20105;-89
2022/05/03 07:27:13;;;;;;;4.40;2.40;;;17.70;99.90;;;;;;4972323;28;20029;-90
2022/05/03 07:29:39;;;;;;;10.90;3.22;;;17.80;99.90;;;;;;4972440;28;20031;-92
2022/05/03 07:32:05;;;;;;;5.80;2.83;;;18.00;99.90;;;;;;4972236;28;20393;-90
2022/05/03 07:34:32;;;;;;;4.90;2.90;;;18.10;99.90;;;;;;4971950;28;20082;-90
2022/05/03 07:36:57;;;;;;;5.88;3.00;;;18.30;99.90;;;;;;4970323;28;20045;-88
2022/05/03 07:39:23;;;;;;;10.05;2.50;;;18.40;99.90;;;;;;4972770;28;20118;-87
2022/05/03 07:41:49;;;;;;;4.05;2.80;;;18.50;99.90;;;;;;4971160;28;20110;-88
2022/05/03 07:44:20;;;;;;;5.35;2.53;;;18.70;99.90;;;;;;4975273;28;20027;-93
2022/05/03 07:46:46;;;;;;;4.22;2.70;;;18.90;99.90;;;;;;4971896;28;20043;-94
2022/05/03 07:49:11;;;;;;;2.35;1.98;;;19.00;99.90;;;;;;4978337;28;20037;-90
2022/05/03 07:51:41;;;;;;;5.82;2.30;;;19.20;99.90;;;;;;4959768;28;20434;-93
2022/05/03 07:54:06;;;;;;;3.30;2.40;;;19.10;99.90;;;;;;4957237;28;20474;-92
2022/05/03 07:56:32;;;;;;;11.25;5.38;;;19.10;99.90;;;;;;4977053;28;20073;-96
2022/05/03 07:58:59;;;;;;;6.93;4.05;;;19.20;99.90;;;;;;4964922;28;20031;-95
2022/05/03 08:01:25;;;;;;;9.68;7.05;;;19.30;99.90;;;;;;4982499;28;20026;-89
2022/05/03 08:03:51;;;;;;;5.95;3.40;;;19.50;99.90;;;;;;4962474;28;20030;-93
2022/05/03 08:06:17;;;;;;;4.78;2.88;;;19.60;99.90;;;;;;4978237;28;20054;-94
2022/05/03 08:08:46;;;;;;;3.88;2.25;;;19.80;99.90;;;;;;4975093;28;20034;-90
2022/05/03 08:11:13;;;;;;;6.15;2.60;;;20.10;99.90;;;;;;4977049;28;20053;-94
2022/05/03 08:13:38;;;;;;;6.68;2.28;;;20.30;99.90;;;;;;4956403;28;20490;-94
2022/05/03 08:16:20;;;;;;;9.20;2.67;;;20.30;99.90;;;;;;4957207;28;20061;-93
2022/05/03 08:18:47;;;;;;;5.18;2.30;;;20.20;99.90;;;;;;4956274;28;20114;-85
2022/05/03 08:21:14;;;;;;;9.07;2.65;;;20.10;99.90;;;;;;4972458;28;20037;-87
2022/05/03 08:23:39;;;;;;;3.53;2.35;;;20.10;99.90;;;;;;4970896;28;20088;-87
2022/05/03 08:26:05;;;;;;;3.38;2.10;;;20.30;99.90;;;;;;4969703;28;20396;-87
2022/05/03 08:28:31;;;;;;;3.88;2.10;;;20.50;99.90;;;;;;4955559;28;20073;-90
2022/05/03 08:30:58;;;;;;;6.38;2.50;;;20.70;99.90;;;;;;4975054;28;20023;-85
2022/05/03 08:33:24;;;;;;;5.13;2.65;;;21.00;99.90;;;;;;4956582;28;20031;-88
2022/05/03 08:35:49;;;;;;;5.85;2.20;;;20.90;99.90;;;;;;4973273;28;20500;-95
2022/05/03 08:43:44;;;;;;;3.72;2.30;;;21.50;99.90;;;;;;4971592;28;20087;-88
2022/05/03 08:46:11;;;;;;;9.00;2.80;;;21.60;99.90;;;;;;4974222;28;20037;-89
2022/05/03 08:48:41;;;;;;;5.03;2.40;;;21.40;99.90;;;;;;4978092;28;20026;-87
2022/05/03 08:51:10;;;;;;;3.17;2.28;;;21.20;99.90;;;;;;4977211;28;20031;-82
2022/05/03 08:53:36;;;;;;;5.55;2.65;;;21.20;99.90;;;;;;4973459;28;20023;-88
2022/05/03 08:56:02;;;;;;;10.40;2.47;;;21.20;99.90;;;;;;5095302;23;20119;-90
2022/05/03 08:58:29;;;;;;;12.30;4.15;;;21.30;99.90;;;;;;5006232;28;20117;-89
2022/05/03 09:00:55;;;;;;;5.63;2.17;;;21.50;99.90;;;;;;4999443;28;20034;-92
2022/05/03 09:03:24;;;;;;;5.28;2.88;;;21.70;98.20;;;;;;5001776;28;20045;-93
2022/05/03 09:05:52;;;;;;;7.55;2.50;;;21.90;99.90;;;;;;4979641;28;20039;-92
2022/05/03 09:08:22;;;;;;;3.42;2.20;;;22.20;99.90;;;;;;4974849;28;20026;-94
2022/05/03 09:10:47;;;;;;;5.47;2.25;;;22.50;99.90;;;;;;4984019;28;20050;-91
2022/05/03 09:13:20;;;;;;;4.72;2.00;;;22.60;99.90;;;;;;4990369;28;20050;-92
2022/05/03 09:15:51;;;;;;;2.83;2.08;;;22.80;97.70;;;;;;4996520;28;20014;-93
2022/05/03 09:18:31;;;;;;;3.53;2.60;;;23.00;97.10;;;;;;4978894;28;20474;-92
2022/05/03 09:23:49;;;;;;;5.47;2.80;;;21.60;99.90;;;;;;4994370;28;20465;-85
2022/05/03 09:26:21;;;;;;;6.90;2.97;;;20.70;99.90;;;;;;4989152;28;20102;-90
2022/05/03 09:28:52;;;;;;;6.47;2.65;;;20.30;99.90;;;;;;4990804;28;20025;-85
2022/05/03 09:31:37;;;;;;;11.68;2.78;;;20.40;99.90;;;;;;4971925;28;20057;-89
2022/05/03 09:34:27;;;;;;;7.35;3.00;;;20.30;99.90;;;;;;4979397;28;20109;-87
2022/05/03 09:37:04;;;;;;;3.50;2.70;;;20.20;99.90;;;;;;4975259;28;20057;-89
2022/05/03 09:39:37;;;;;;;10.40;3.10;;;20.40;99.90;;;;;;4964082;28;20169;-88
2022/05/03 09:42:03;;;;;;;9.02;4.85;;;20.40;99.90;;;;;;4965464;28;20023;-90
2022/05/03 09:44:31;;;;;;;8.73;4.00;;;20.30;99.90;;;;;;4977679;28;20033;-93
2022/05/03 09:46:56;;;;;;;10.18;2.78;;;20.40;99.90;;;;;;4971980;28;20031;-91
2022/05/03 09:49:41;;;;;;;6.70;2.88;;;20.60;99.90;;;;;;4977695;28;20049;-93
2022/05/03 09:52:12;;;;;;;9.52;3.00;;;20.70;99.90;;;;;;4972620;28;20027;-88
2022/05/03 09:54:50;;;;;;;9.63;3.30;;;20.70;99.90;;;;;;4973621;28;20081;-92
2022/05/03 09:57:24;;;;;;;8.65;2.97;;;20.30;99.90;;;;;;4967503;28;20077;-89
2022/05/03 09:59:51;;;;;;;4.70;2.63;;;20.10;99.90;;;;;;4955008;28;20035;-95
2022/05/03 10:02:19;;;;;;;9.55;2.97;;;20.10;99.90;;;;;;4955482;28;20174;-90
2022/05/03 10:04:46;;;;;;;4.88;2.60;;;20.00;99.90;;;;;;4972569;28;20186;-87
2022/05/03 10:07:13;;;;;;;5.75;2.78;;;20.00;99.90;;;;;;4975301;28;20034;-91
2022/05/03 10:09:40;;;;;;;3.85;2.70;;;20.00;99.90;;;;;;4958064;28;20367;-84
2022/05/03 10:12:11;;;;;;;5.32;3.13;;;20.10;99.90;;;;;;4975696;28;20042;-90
2022/05/03 10:14:38;;;;;;;4.75;2.83;;;20.20;99.90;;;;;;4958448;28;20030;-89
2022/05/03 10:20:40;;;;;;;5.15;2.65;;;19.90;99.90;;;;;;4974180;28;20069;-87
2022/05/03 10:23:31;;;;;;;5.95;2.60;;;20.10;99.90;;;;;;4959935;28;20031;-87
2022/05/03 10:26:08;;;;;;;7.72;2.97;;;20.30;99.90;;;;;;4959588;28;20038;-89
2022/05/03 10:28:56;;;;;;;4.50;2.97;;;20.30;99.90;;;;;;4992746;28;20073;-92
2022/05/03 10:31:22;;;;;;;3.10;2.20;;;20.40;99.90;;;;;;4973091;28;20101;-88
2022/05/03 10:33:47;;;;;;;4.28;2.42;;;20.70;99.90;;;;;;4979392;28;20505;-86
2022/05/03 10:36:32;;;;;;;6.63;2.80;;;20.60;99.90;;;;;;4959620;28;20030;-90
2022/05/03 10:39:27;;;;;;;5.50;2.47;;;20.60;99.90;;;;;;4961048;28;20473;-92
2022/05/03 10:42:12;;;;;;;2.70;2.33;;;20.80;99.90;;;;;;4944337;28;20109;-95
2022/05/03 10:44:42;;;;;;;4.22;2.60;;;21.00;99.90;;;;;;4949102;28;20042;-92
2022/05/03 10:47:09;;;;;;;4.45;2.17;;;21.10;99.90;;;;;;4976253;28;20093;-96
2022/05/03 10:49:55;;;;;;;4.82;2.58;;;21.00;99.90;;;;;;4959301;28;20034;-94
2022/05/03 10:52:23;;;;;;;4.35;2.72;;;20.90;99.90;;;;;;4958116;28;20023;-95
2022/05/03 10:55:11;;;;;;;4.93;2.38;;;21.10;99.90;;;;;;4968827;28;20023;-90
2022/05/03 10:58:14;;;;;;;6.47;2.70;;;21.60;99.90;;;;;;4972408;28;20283;-85
2022/05/03 11:00:58;;;;;;;;;;;21.60;99.90;;;;;;4973346;28;20031;-86
2022/05/03 11:03:24;;;;;;;7.80;2.60;;;21.50;99.90;;;;;;4973969;28;19917;-91
2022/05/03 11:06:25;;;;;;;6.20;2.58;;;21.60;99.90;;;;;;4974765;28;20641;-89
2022/05/03 11:11:49;;;;;;;6.03;2.80;;;21.10;99.90;;;;;;4975886;28;20039;-89
2022/05/03 11:16:51;;;;;;;3.50;2.63;;;21.80;99.90;;;;;;4976557;28;20069;-92
2022/05/03 11:19:18;;;;;;;3.17;2.72;;;22.10;99.90;;;;;;4970819;28;20025;-88
2022/05/03 11:21:45;;;;;;;7.35;2.75;;;22.10;99.30;;;;;;4974178;28;20053;-92
2022/05/03 11:24:27;;;;;;;4.25;2.50;;;22.10;98.60;;;;;;4976228;28;20035;-91
2022/05/03 11:26:55;;;;;;;6.20;2.42;;;22.10;98.80;;;;;;4973449;28;20042;-90
2022/05/03 11:29:30;;;;;;;5.35;2.42;;;22.10;99.00;;;;;;4968504;28;20023;-89
2022/05/03 11:31:59;;;;;;;4.13;2.50;;;22.40;99.60;;;;;;4956833;28;20030;-90
2022/05/03 11:34:26;;;;;;;2.78;2.38;;;22.30;99.90;;;;;;4974822;28;20022;-89
2022/05/03 11:36:52;;;;;;;8.10;3.13;;;22.40;99.90;;;;;;4974567;28;20573;-89
2022/05/03 11:39:19;;;;;;;5.18;2.60;;;22.30;99.90;;;;;;4974584;28;20114;-92
2022/05/03 11:41:47;;;;;;;4.65;2.42;;;21.90;99.90;;;;;;4976129;28;20117;-90
2022/05/03 11:44:14;;;;;;;5.47;2.85;;;21.60;99.90;;;;;;4973930;28;20683;-87
2022/05/03 11:46:42;;;;;;;3.70;2.40;;;21.40;99.90;;;;;;4975308;28;20038;-90
2022/05/03 11:49:09;;;;;;;3.72;2.72;;;21.40;99.90;;;;;;4956524;28;20030;-91
2022/05/03 11:57:08;;;;;;;6.15;2.95;;;22.30;99.90;;;;;;4973498;28;20041;-90
2022/05/03 11:59:34;;;;;;;4.22;2.38;;;22.40;99.90;;;;;;4972722;28;20042;-86
2022/05/03 12:02:19;;;;;;;5.68;2.58;;;22.30;98.90;;;;;;4972669;28;20022;-87
2022/05/03 12:05:19;;;;;;;4.45;2.10;;;22.30;99.90;;;;;;4972136;28;20042;-87
2022/05/03 12:07:56;;;;;;;5.03;2.70;;;22.80;98.50;;;;;;4953913;28;20411;-85
2022/05/03 12:10:29;;;;;;;4.18;2.40;;;25.60;95.70;;;;;;4950767;28;20023;-85
2022/05/03 12:13:13;;;;;;;3.10;2.22;;;25.80;95.10;;;;;;4971505;28;20046;-83
2022/05/03 12:15:41;;;;;;;4.05;2.50;;;25.10;96.00;;;;;;4958852;28;20054;-87
2022/05/03 12:18:32;;;;;;;3.55;2.35;;;24.90;94.50;;;;;;4972739;28;20031;-86
2022/05/03 12:21:00;;;;;;;4.85;2.47;;;24.70;93.70;;;;;;4961431;28;20039;-86
2022/05/03 12:23:37;;;;;;;13.73;3.53;;;24.70;92.30;;;;;;4972553;28;20019;-86
2022/05/03 12:26:21;;;;;;;8.15;2.53;;;25.00;96.10;;;;;;4972895;28;20035;-86
2022/05/03 12:29:00;;;;;;;3.88;2.13;;;25.50;93.00;;;;;;4973940;28;20028;-93
2022/05/03 12:31:36;;;;;;;1.98;1.83;;;26.10;92.30;;;;;;4971982;28;20029;-85
2022/05/03 12:34:05;;;;;;;7.55;2.65;;;26.10;90.50;;;;;;4956210;28;20026;-86
2022/05/03 12:36:46;;;;;;;3.40;1.90;;;28.60;91.00;;;;;;4956691;28;20019;-87
2022/05/03 12:39:22;;;;;;;3.92;2.30;;;32.30;84.60;;;;;;4976328;28;20141;-91
2022/05/03 12:41:55;;;;;;;8.85;2.30;;;35.80;73.80;;;;;;4956782;28;20026;-87
2022/05/03 12:44:22;;;;;;;13.18;2.15;;;38.40;64.00;;;;;;4974218;28;20034;-90
2022/05/03 12:46:50;;;;;;;7.60;2.08;;;39.00;56.70;;;;;;4958124;28;20026;-85
2022/05/03 12:49:21;;;;;;;6.22;2.10;;;39.50;56.20;;;;;;4984453;28;20030;-87
2022/05/03 12:51:48;;;;;;;6.65;2.30;;;39.10;53.90;;;;;;4972611;28;20381;-85
2022/05/03 12:54:14;;;;;;;3.35;2.40;;;38.40;53.20;;;;;;4960818;28;20512;-91
2022/05/03 12:59:26;;;;;;;3.88;2.40;;;38.40;52.20;;;;;;4977787;28;20314;-86
2022/05/03 13:01:55;;;;;;;4.50;2.00;;;37.60;51.90;;;;;;4954475;28;20398;-85
2022/05/03 13:04:22;;;;;;;4.55;2.00;;;37.30;52.50;;;;;;4971480;28;20497;-86
2022/05/03 13:06:48;;;;;;;5.03;2.40;;;38.10;51.60;;;;;;4973076;28;20026;-87
2022/05/03 13:09:14;;;;;;;4.05;2.00;;;39.00;52.70;;;;;;4974026;28;20101;-86
2022/05/03 13:11:41;;;;;;;3.78;2.10;;;38.80;49.40;;;;;;4971387;28;20113;-88
2022/05/03 13:14:08;;;;;;;4.32;2.45;;;40.20;50.10;;;;;;4974234;28;20034;-88
2022/05/03 13:16:35;;;;;;;10.73;2.78;;;40.80;49.10;;;;;;4955835;28;20023;-89
2022/05/03 13:19:02;;;;;;;5.45;2.35;;;40.70;47.00;;;;;;4970180;28;20065;-87
2022/05/03 13:21:28;;;;;;;3.40;2.35;;;40.10;47.90;;;;;;4974357;28;20390;-88
2022/05/03 13:23:53;;;;;;;4.25;2.75;;;38.70;46.70;;;;;;4957193;28;20026;-89
2022/05/03 13:26:20;;;;;;;3.95;2.90;;;37.60;48.10;;;;;;4954940;28;20556;-89
2022/05/03 13:28:46;;;;;;;3.47;2.30;;;36.90;48.00;;;;;;4956007;28;20502;-88
2022/05/03 13:31:16;;;;;;;3.95;2.10;;;35.50;47.40;;;;;;4954575;28;20037;-90
2022/05/03 13:33:42;;;;;;;2.53;2.10;;;34.00;49.10;;;;;;4971473;28;20030;-87
2022/05/03 13:41:36;;;;;;;4.68;2.25;;;34.80;47.50;;;;;;4976181;28;20037;-89
2022/05/03 13:44:02;;;;;;;3.92;2.25;;;35.30;48.90;;;;;;4977636;28;20400;-88
2022/05/03 13:46:32;;;;;;;5.57;2.13;;;35.70;48.00;;;;;;4977715;28;20023;-88
2022/05/03 13:48:58;;;;;;;3.78;1.85;;;35.40;47.00;;;;;;4977389;28;20085;-89
2022/05/03 13:51:23;;;;;;;3.97;1.88;;;35.30;47.00;;;;;;4978283;28;20030;-90
2022/05/03 13:53:50;;;;;;;2.80;1.70;;;35.10;46.10;;;;;;4976956;28;20027;-89
2022/05/03 13:56:16;;;;;;;3.00;1.70;;;35.60;47.10;;;;;;4976337;28;20058;-87
2022/05/03 13:58:43;;;;;;;4.15;2.03;;;35.90;45.90;;;;;;4976077;28;20528;-87
2022/05/03 14:01:12;;;;;;;6.28;2.13;;;36.50;45.30;;;;;;4975771;28;20439;-89
2022/05/03 14:03:41;;;;;;;5.00;1.80;;;37.10;45.30;;;;;;4975506;28;20527;-89
2022/05/03 14:06:06;;;;;;;3.78;1.90;;;34.10;46.00;;;;;;4975108;28;20042;-88
2022/05/03 14:08:32;;;;;;;6.55;1.98;;;31.60;47.70;;;;;;4957843;28;20402;-85
2022/05/03 14:10:58;;;;;;;3.40;2.17;;;29.00;51.80;;;;;;4975135;28;20031;-86
2022/05/03 14:13:24;;;;;;;5.35;2.25;;;27.40;54.90;;;;;;4974752;28;20027;-86
2022/05/03 14:15:50;;;;;;;3.13;2.20;;;27.20;55.80;;;;;;4971514;28;20019;-88
2022/05/03 14:18:20;;;;;;;6.88;2.30;;;27.20;57.90;;;;;;4975129;28;20501;-88
2022/05/03 14:20:46;;;;;;;6.97;2.55;;;26.40;57.90;;;;;;4974839;28;20034;-85
2022/05/03 14:23:12;;;;;;;7.82;2.03;;;24.90;60.60;;;;;;4975006;28;20031;-85
2022/05/03 14:25:38;;;;;;;3.05;1.48;;;26.00;66.30;;;;;;4957592;28;20044;-84
2022/05/03 14:28:04;;;;;;;3.97;2.03;;;30.20;62.70;;;;;;4974840;28;20031;-87
2022/05/03 14:30:29;;;;;;;3.30;1.38;;;33.90;58.50;;;;;;4975059;28;20019;-90
2022/05/03 14:32:55;;;;;;;3.95;1.60;;;36.40;53.60;;;;;;4964172;28;20018;-87
2022/05/03 14:35:21;;;;;;;3.25;1.75;;;38.50;51.00;;;;;;4957557;28;20037;-89
2022/05/03 14:37:46;;;;;;;5.85;1.70;;;39.80;47.50;;;;;;4978561;28;20030;-90
2022/05/03 14:40:15;;;;;;;8.98;2.15;;;37.60;46.80;;;;;;4975709;28;20070;-90
2022/05/03 14:42:41;;;;;;;5.32;1.95;;;32.60;51.10;;;;;;4975217;28;20050;-91
2022/05/03 14:45:11;;;;;;;3.35;1.85;;;31.60;53.60;;;;;;4976714;28;20070;-88
2022/05/03 14:47:37;;;;;;;5.13;2.22;;;30.30;53.90;;;;;;4975250;28;20123;-88
2022/05/03 14:50:03;;;;;;;4.97;2.53;;;28.90;56.40;;;;;;4975697;28;20506;-87
2022/05/03 14:52:29;;;;;;;5.07;2.20;;;26.30;58.70;;;;;;4974108;28;20023;-86